sensor_id;sensor_type;location;lat;lon;timestamp;P1;durP1;ratioP1;P2;durP2;ratioP2
14613;SDS011;7393;51.446;6.800;2024-01-07T00:01:58;17.27;;;12.20;;
14613;SDS011;7393;51.446;6.800;2024-01-07T00:04:26;17.93;;;12.50;;
14613;SDS011;7393;51.446;6.800;2024-01-07T00:06:53;17.97;;;11.73;;
14613;SDS011;7393;51.446;6.800;2024-01-07T00:09:19;21.20;;;12.37;;
14613;SDS011;7393;51.446;6.800;2024-01-07T00:11:46;17.77;;;11.50;;
14613;SDS011;7393;51.446;6.800;2024-01-07T00:14:14;17.63;;;11.73;;
14613;SDS011;7393;51.446;6.800;2024-01-07T00:16:41;15.60;;;11.47;;
14613;SDS011;7393;51.446;6.800;2024-01-07T00:19:08;16.70;;;10.37;;
14613;SDS011;7393;51.446;6.800;2024-01-07T00:21:36;17.63;;;11.47;;
14613;SDS011;7393;51.446;6.800;2024-01-07T00:24:03;14.73;;;10.83;;
14613;SDS011;7393;51.446;6.800;2024-01-07T00:26:30;16.03;;;10.67;;
14613;SDS011;7393;51.446;6.800;2024-01-07T00:28:57;15.63;;;11.27;;
14613;SDS011;7393;51.446;6.800;2024-01-07T00:31:23;16.17;;;11.30;;
14613;SDS011;7393;51.446;6.800;2024-01-07T00:33:50;16.57;;;11.27;;
14613;SDS011;7393;51.446;6.800;2024-01-07T00:36:17;16.00;;;11.00;;
14613;SDS011;7393;51.446;6.800;2024-01-07T00:38:45;16.60;;;11.20;;
14613;SDS011;7393;51.446;6.800;2024-01-07T00:41:12;15.20;;;11.07;;
14613;SDS011;7393;51.446;6.800;2024-01-07T00:43:38;18.17;;;12.03;;
14613;SDS011;7393;51.446;6.800;2024-01-07T00:46:05;16.97;;;10.83;;
14613;SDS011;7393;51.446;6.800;2024-01-07T00:48:32;16.30;;;10.80;;
14613;SDS011;7393;51.446;6.800;2024-01-07T00:50:59;14.90;;;10.87;;
14613;SDS011;7393;51.446;6.800;2024-01-07T00:53:26;17.63;;;11.93;;
14613;SDS011;7393;51.446;6.800;2024-01-07T00:55:54;17.80;;;12.40;;
14613;SDS011;7393;51.446;6.800;2024-01-07T00:58:21;19.07;;;12.30;;
14613;SDS011;7393;51.446;6.800;2024-01-07T01:00:48;17.63;;;11.73;;
14613;SDS011;7393;51.446;6.800;2024-01-07T01:03:14;15.63;;;10.93;;
14613;SDS011;7393;51.446;6.800;2024-01-07T01:05:41;15.30;;;11.07;;
14613;SDS011;7393;51.446;6.800;2024-01-07T01:08:08;16.77;;;11.77;;
14613;SDS011;7393;51.446;6.800;2024-01-07T01:10:35;15.93;;;11.50;;
14613;SDS011;7393;51.446;6.800;2024-01-07T01:13:03;14.53;;;10.90;;
14613;SDS011;7393;51.446;6.800;2024-01-07T01:15:30;14.97;;;10.90;;
14613;SDS011;7393;51.446;6.800;2024-01-07T01:17:56;15.53;;;11.27;;
14613;SDS011;7393;51.446;6.800;2024-01-07T01:20:23;16.00;;;11.33;;
14613;SDS011;7393;51.446;6.800;2024-01-07T01:22:50;16.73;;;12.07;;
14613;SDS011;7393;51.446;6.800;2024-01-07T01:25:16;16.53;;;12.17;;
14613;SDS011;7393;51.446;6.800;2024-01-07T01:27:43;17.37;;;11.77;;
14613;SDS011;7393;51.446;6.800;2024-01-07T01:30:12;18.13;;;12.97;;
14613;SDS011;7393;51.446;6.800;2024-01-07T01:32:39;17.07;;;12.30;;
14613;SDS011;7393;51.446;6.800;2024-01-07T01:35:06;18.80;;;13.00;;
14613;SDS011;7393;51.446;6.800;2024-01-07T01:37:33;17.10;;;12.27;;
14613;SDS011;7393;51.446;6.800;2024-01-07T01:40:00;16.33;;;11.87;;
14613;SDS011;7393;51.446;6.800;2024-01-07T01:42:27;16.33;;;12.03;;
14613;SDS011;7393;51.446;6.800;2024-01-07T01:44:53;17.80;;;12.90;;
14613;SDS011;7393;51.446;6.800;2024-01-07T01:47:25;18.10;;;12.50;;
14613;SDS011;7393;51.446;6.800;2024-01-07T01:49:52;18.50;;;13.13;;
14613;SDS011;7393;51.446;6.800;2024-01-07T01:52:20;21.40;;;14.40;;
14613;SDS011;7393;51.446;6.800;2024-01-07T01:54:47;20.57;;;12.73;;
14613;SDS011;7393;51.446;6.800;2024-01-07T01:57:15;18.90;;;13.03;;
14613;SDS011;7393;51.446;6.800;2024-01-07T01:59:45;17.00;;;12.07;;
14613;SDS011;7393;51.446;6.800;2024-01-07T02:02:13;19.13;;;12.93;;
14613;SDS011;7393;51.446;6.800;2024-01-07T02:04:41;21.17;;;13.00;;
14613;SDS011;7393;51.446;6.800;2024-01-07T02:07:08;19.30;;;13.20;;
14613;SDS011;7393;51.446;6.800;2024-01-07T02:09:35;22.77;;;14.90;;
14613;SDS011;7393;51.446;6.800;2024-01-07T02:12:02;21.00;;;13.77;;
14613;SDS011;7393;51.446;6.800;2024-01-07T02:14:30;20.53;;;13.27;;
14613;SDS011;7393;51.446;6.800;2024-01-07T02:16:57;21.73;;;13.37;;
14613;SDS011;7393;51.446;6.800;2024-01-07T02:19:24;21.23;;;12.93;;
14613;SDS011;7393;51.446;6.800;2024-01-07T02:21:52;20.50;;;13.10;;
14613;SDS011;7393;51.446;6.800;2024-01-07T02:24:21;21.60;;;13.17;;
14613;SDS011;7393;51.446;6.800;2024-01-07T02:26:48;21.90;;;13.40;;
14613;SDS011;7393;51.446;6.800;2024-01-07T02:29:14;19.97;;;12.67;;
14613;SDS011;7393;51.446;6.800;2024-01-07T02:31:41;23.03;;;14.03;;
14613;SDS011;7393;51.446;6.800;2024-01-07T02:34:08;23.70;;;13.60;;
14613;SDS011;7393;51.446;6.800;2024-01-07T02:36:35;22.57;;;13.20;;
14613;SDS011;7393;51.446;6.800;2024-01-07T02:39:02;20.80;;;12.97;;
14613;SDS011;7393;51.446;6.800;2024-01-07T02:41:30;21.73;;;13.37;;
14613;SDS011;7393;51.446;6.800;2024-01-07T02:43:57;23.93;;;14.27;;
14613;SDS011;7393;51.446;6.800;2024-01-07T02:46:24;21.30;;;13.90;;
14613;SDS011;7393;51.446;6.800;2024-01-07T02:48:51;20.73;;;14.10;;
14613;SDS011;7393;51.446;6.800;2024-01-07T02:51:17;28.47;;;15.13;;
14613;SDS011;7393;51.446;6.800;2024-01-07T02:53:44;25.70;;;14.67;;
14613;SDS011;7393;51.446;6.800;2024-01-07T02:56:11;26.33;;;15.00;;
14613;SDS011;7393;51.446;6.800;2024-01-07T02:58:39;23.10;;;14.90;;
14613;SDS011;7393;51.446;6.800;2024-01-07T03:01:08;23.97;;;14.87;;
14613;SDS011;7393;51.446;6.800;2024-01-07T03:03:35;22.90;;;14.57;;
14613;SDS011;7393;51.446;6.800;2024-01-07T03:06:02;20.60;;;14.10;;
14613;SDS011;7393;51.446;6.800;2024-01-07T03:08:29;21.00;;;14.03;;
14613;SDS011;7393;51.446;6.800;2024-01-07T03:10:56;19.97;;;14.13;;
14613;SDS011;7393;51.446;6.800;2024-01-07T03:13:22;23.07;;;13.60;;
14613;SDS011;7393;51.446;6.800;2024-01-07T03:15:50;19.50;;;13.00;;
14613;SDS011;7393;51.446;6.800;2024-01-07T03:18:17;19.67;;;13.00;;
14613;SDS011;7393;51.446;6.800;2024-01-07T03:20:44;18.47;;;11.97;;
14613;SDS011;7393;51.446;6.800;2024-01-07T03:23:10;16.67;;;11.67;;
14613;SDS011;7393;51.446;6.800;2024-01-07T03:25:37;16.73;;;11.13;;
14613;SDS011;7393;51.446;6.800;2024-01-07T03:28:04;17.23;;;11.57;;
14613;SDS011;7393;51.446;6.800;2024-01-07T03:30:31;17.20;;;11.23;;
14613;SDS011;7393;51.446;6.800;2024-01-07T03:32:59;15.67;;;11.20;;
14613;SDS011;7393;51.446;6.800;2024-01-07T03:35:26;13.47;;;10.47;;
14613;SDS011;7393;51.446;6.800;2024-01-07T03:37:53;14.87;;;10.87;;
14613;SDS011;7393;51.446;6.800;2024-01-07T03:40:20;14.67;;;10.17;;
14613;SDS011;7393;51.446;6.800;2024-01-07T03:42:47;16.40;;;11.00;;
14613;SDS011;7393;51.446;6.800;2024-01-07T03:45:14;14.67;;;10.50;;
14613;SDS011;7393;51.446;6.800;2024-01-07T03:47:40;16.40;;;11.17;;
14613;SDS011;7393;51.446;6.800;2024-01-07T03:50:09;14.17;;;10.67;;
14613;SDS011;7393;51.446;6.800;2024-01-07T03:52:35;16.03;;;11.10;;
14613;SDS011;7393;51.446;6.800;2024-01-07T03:55:02;16.67;;;11.07;;
14613;SDS011;7393;51.446;6.800;2024-01-07T03:57:30;14.90;;;10.70;;
14613;SDS011;7393;51.446;6.800;2024-01-07T03:59:58;15.57;;;10.67;;
14613;SDS011;7393;51.446;6.800;2024-01-07T04:02:25;14.50;;;10.20;;
14613;SDS011;7393;51.446;6.800;2024-01-07T04:04:51;14.63;;;10.77;;
14613;SDS011;7393;51.446;6.800;2024-01-07T04:07:19;17.17;;;12.23;;
14613;SDS011;7393;51.446;6.800;2024-01-07T04:09:46;18.93;;;12.23;;
14613;SDS011;7393;51.446;6.800;2024-01-07T04:12:13;18.10;;;12.40;;
14613;SDS011;7393;51.446;6.800;2024-01-07T04:14:39;17.47;;;12.70;;
14613;SDS011;7393;51.446;6.800;2024-01-07T04:17:06;18.23;;;12.10;;
14613;SDS011;7393;51.446;6.800;2024-01-07T04:19:33;18.33;;;12.87;;
14613;SDS011;7393;51.446;6.800;2024-01-07T04:22:02;20.93;;;13.23;;
14613;SDS011;7393;51.446;6.800;2024-01-07T04:24:30;15.47;;;12.43;;
14613;SDS011;7393;51.446;6.800;2024-01-07T04:26:57;19.23;;;12.73;;
14613;SDS011;7393;51.446;6.800;2024-01-07T04:29:24;15.87;;;12.00;;
14613;SDS011;7393;51.446;6.800;2024-01-07T04:31:51;16.73;;;11.93;;
14613;SDS011;7393;51.446;6.800;2024-01-07T04:34:17;16.47;;;11.40;;
14613;SDS011;7393;51.446;6.800;2024-01-07T04:36:44;14.23;;;10.90;;
14613;SDS011;7393;51.446;6.800;2024-01-07T04:39:12;16.53;;;10.87;;
14613;SDS011;7393;51.446;6.800;2024-01-07T04:41:41;14.43;;;10.37;;
14613;SDS011;7393;51.446;6.800;2024-01-07T04:44:07;12.93;;;9.83;;
14613;SDS011;7393;51.446;6.800;2024-01-07T04:46:34;11.57;;;9.50;;
14613;SDS011;7393;51.446;6.800;2024-01-07T04:49:04;13.50;;;9.47;;
14613;SDS011;7393;51.446;6.800;2024-01-07T04:51:30;12.97;;;9.97;;
14613;SDS011;7393;51.446;6.800;2024-01-07T04:53:57;13.83;;;10.30;;
14613;SDS011;7393;51.446;6.800;2024-01-07T04:56:24;15.20;;;10.23;;
14613;SDS011;7393;51.446;6.800;2024-01-07T04:58:52;12.37;;;9.60;;
14613;SDS011;7393;51.446;6.800;2024-01-07T05:01:19;13.57;;;9.97;;
14613;SDS011;7393;51.446;6.800;2024-01-07T05:03:46;12.90;;;9.90;;
14613;SDS011;7393;51.446;6.800;2024-01-07T05:06:13;13.20;;;9.43;;
14613;SDS011;7393;51.446;6.800;2024-01-07T05:08:40;13.13;;;9.57;;
14613;SDS011;7393;51.446;6.800;2024-01-07T05:11:07;13.87;;;9.50;;
14613;SDS011;7393;51.446;6.800;2024-01-07T05:13:34;13.77;;;9.60;;
14613;SDS011;7393;51.446;6.800;2024-01-07T05:16:03;11.30;;;8.87;;
14613;SDS011;7393;51.446;6.800;2024-01-07T05:18:30;13.80;;;9.40;;
14613;SDS011;7393;51.446;6.800;2024-01-07T05:20:56;12.57;;;8.60;;
14613;SDS011;7393;51.446;6.800;2024-01-07T05:23:23;12.07;;;8.93;;
14613;SDS011;7393;51.446;6.800;2024-01-07T05:25:50;12.90;;;9.23;;
14613;SDS011;7393;51.446;6.800;2024-01-07T05:28:17;14.63;;;9.87;;
14613;SDS011;7393;51.446;6.800;2024-01-07T05:30:45;12.83;;;10.13;;
14613;SDS011;7393;51.446;6.800;2024-01-07T05:33:13;13.77;;;10.07;;
14613;SDS011;7393;51.446;6.800;2024-01-07T05:35:39;12.73;;;9.77;;
14613;SDS011;7393;51.446;6.800;2024-01-07T05:38:06;15.13;;;9.80;;
14613;SDS011;7393;51.446;6.800;2024-01-07T05:40:33;12.93;;;9.83;;
14613;SDS011;7393;51.446;6.800;2024-01-07T05:43:00;15.20;;;10.10;;
14613;SDS011;7393;51.446;6.800;2024-01-07T05:45:26;16.37;;;10.17;;
14613;SDS011;7393;51.446;6.800;2024-01-07T05:47:53;15.47;;;10.80;;
14613;SDS011;7393;51.446;6.800;2024-01-07T05:50:21;18.43;;;11.10;;
14613;SDS011;7393;51.446;6.800;2024-01-07T05:52:48;15.63;;;11.20;;
14613;SDS011;7393;51.446;6.800;2024-01-07T05:55:14;15.97;;;11.00;;
14613;SDS011;7393;51.446;6.800;2024-01-07T05:57:42;15.20;;;11.10;;
14613;SDS011;7393;51.446;6.800;2024-01-07T06:00:09;15.53;;;10.70;;
14613;SDS011;7393;51.446;6.800;2024-01-07T06:02:38;17.37;;;10.63;;
14613;SDS011;7393;51.446;6.800;2024-01-07T06:05:05;16.00;;;11.17;;
14613;SDS011;7393;51.446;6.800;2024-01-07T06:07:33;15.93;;;10.70;;
14613;SDS011;7393;51.446;6.800;2024-01-07T06:10:00;14.97;;;10.60;;
14613;SDS011;7393;51.446;6.800;2024-01-07T06:12:27;16.63;;;11.47;;
14613;SDS011;7393;51.446;6.800;2024-01-07T06:14:54;15.70;;;10.37;;
14613;SDS011;7393;51.446;6.800;2024-01-07T06:17:21;14.50;;;10.87;;
14613;SDS011;7393;51.446;6.800;2024-01-07T06:19:47;14.53;;;10.50;;
14613;SDS011;7393;51.446;6.800;2024-01-07T06:22:14;14.13;;;10.27;;
14613;SDS011;7393;51.446;6.800;2024-01-07T06:24:42;19.03;;;11.50;;
14613;SDS011;7393;51.446;6.800;2024-01-07T06:27:09;15.77;;;10.77;;
14613;SDS011;7393;51.446;6.800;2024-01-07T06:29:36;14.77;;;10.70;;
14613;SDS011;7393;51.446;6.800;2024-01-07T06:32:02;16.53;;;11.40;;
14613;SDS011;7393;51.446;6.800;2024-01-07T06:34:30;15.67;;;11.17;;
14613;SDS011;7393;51.446;6.800;2024-01-07T06:36:58;15.03;;;10.57;;
14613;SDS011;7393;51.446;6.800;2024-01-07T06:39:25;17.80;;;12.07;;
14613;SDS011;7393;51.446;6.800;2024-01-07T06:41:54;15.23;;;10.63;;
14613;SDS011;7393;51.446;6.800;2024-01-07T06:44:21;16.87;;;11.13;;
14613;SDS011;7393;51.446;6.800;2024-01-07T06:46:47;17.03;;;10.87;;
14613;SDS011;7393;51.446;6.800;2024-01-07T06:49:14;14.87;;;10.50;;
14613;SDS011;7393;51.446;6.800;2024-01-07T06:51:41;15.03;;;10.30;;
14613;SDS011;7393;51.446;6.800;2024-01-07T06:54:07;14.87;;;10.60;;
14613;SDS011;7393;51.446;6.800;2024-01-07T06:56:34;15.37;;;10.10;;
14613;SDS011;7393;51.446;6.800;2024-01-07T06:59:02;14.67;;;10.47;;
14613;SDS011;7393;51.446;6.800;2024-01-07T07:01:29;14.27;;;10.33;;
14613;SDS011;7393;51.446;6.800;2024-01-07T07:03:56;15.57;;;10.30;;
14613;SDS011;7393;51.446;6.800;2024-01-07T07:06:23;12.87;;;9.97;;
14613;SDS011;7393;51.446;6.800;2024-01-07T07:08:50;13.20;;;9.53;;
14613;SDS011;7393;51.446;6.800;2024-01-07T07:11:17;16.73;;;9.40;;
14613;SDS011;7393;51.446;6.800;2024-01-07T07:13:44;14.70;;;9.33;;
14613;SDS011;7393;51.446;6.800;2024-01-07T07:16:12;12.40;;;9.00;;
14613;SDS011;7393;51.446;6.800;2024-01-07T07:18:39;12.77;;;10.07;;
14613;SDS011;7393;51.446;6.800;2024-01-07T07:21:06;13.53;;;9.37;;
14613;SDS011;7393;51.446;6.800;2024-01-07T07:23:33;13.03;;;9.70;;
14613;SDS011;7393;51.446;6.800;2024-01-07T07:26:00;12.53;;;9.27;;
14613;SDS011;7393;51.446;6.800;2024-01-07T07:28:27;12.23;;;9.47;;
14613;SDS011;7393;51.446;6.800;2024-01-07T07:30:53;13.73;;;9.57;;
14613;SDS011;7393;51.446;6.800;2024-01-07T07:33:21;14.40;;;10.57;;
14613;SDS011;7393;51.446;6.800;2024-01-07T07:35:49;12.73;;;9.93;;
14613;SDS011;7393;51.446;6.800;2024-01-07T07:38:16;14.63;;;10.50;;
14613;SDS011;7393;51.446;6.800;2024-01-07T07:40:42;12.33;;;9.77;;
14613;SDS011;7393;51.446;6.800;2024-01-07T07:43:10;13.57;;;9.63;;
14613;SDS011;7393;51.446;6.800;2024-01-07T07:45:37;15.47;;;10.43;;
14613;SDS011;7393;51.446;6.800;2024-01-07T07:48:04;13.93;;;9.63;;
14613;SDS011;7393;51.446;6.800;2024-01-07T07:50:33;13.10;;;9.87;;
14613;SDS011;7393;51.446;6.800;2024-01-07T07:53:00;14.50;;;10.03;;
14613;SDS011;7393;51.446;6.800;2024-01-07T07:55:27;15.50;;;9.97;;
14613;SDS011;7393;51.446;6.800;2024-01-07T07:57:54;14.43;;;9.77;;
14613;SDS011;7393;51.446;6.800;2024-01-07T08:00:21;13.07;;;9.30;;
14613;SDS011;7393;51.446;6.800;2024-01-07T08:02:48;11.70;;;8.70;;
14613;SDS011;7393;51.446;6.800;2024-01-07T08:05:15;11.13;;;8.50;;
14613;SDS011;7393;51.446;6.800;2024-01-07T08:07:43;11.73;;;8.70;;
14613;SDS011;7393;51.446;6.800;2024-01-07T08:10:10;12.80;;;9.17;;
14613;SDS011;7393;51.446;6.800;2024-01-07T08:12:37;11.73;;;8.80;;
14613;SDS011;7393;51.446;6.800;2024-01-07T08:15:04;14.13;;;9.00;;
14613;SDS011;7393;51.446;6.800;2024-01-07T08:17:31;12.43;;;8.77;;
14613;SDS011;7393;51.446;6.800;2024-01-07T08:19:58;14.93;;;9.23;;
14613;SDS011;7393;51.446;6.800;2024-01-07T08:22:26;11.40;;;8.37;;
14613;SDS011;7393;51.446;6.800;2024-01-07T08:24:54;11.50;;;8.57;;
14613;SDS011;7393;51.446;6.800;2024-01-07T08:27:21;11.47;;;8.60;;
14613;SDS011;7393;51.446;6.800;2024-01-07T08:29:47;14.30;;;8.53;;
14613;SDS011;7393;51.446;6.800;2024-01-07T08:32:14;12.90;;;8.67;;
14613;SDS011;7393;51.446;6.800;2024-01-07T08:34:41;12.30;;;9.10;;
14613;SDS011;7393;51.446;6.800;2024-01-07T08:37:08;14.37;;;9.10;;
14613;SDS011;7393;51.446;6.800;2024-01-07T08:39:34;12.50;;;8.73;;
14613;SDS011;7393;51.446;6.800;2024-01-07T08:42:03;14.37;;;9.23;;
14613;SDS011;7393;51.446;6.800;2024-01-07T08:44:30;14.77;;;9.13;;
14613;SDS011;7393;51.446;6.800;2024-01-07T08:46:57;12.03;;;8.77;;
14613;SDS011;7393;51.446;6.800;2024-01-07T08:49:25;13.23;;;8.77;;
14613;SDS011;7393;51.446;6.800;2024-01-07T08:51:52;13.87;;;8.83;;
14613;SDS011;7393;51.446;6.800;2024-01-07T08:54:19;14.63;;;9.10;;
14613;SDS011;7393;51.446;6.800;2024-01-07T08:56:46;11.00;;;8.20;;
14613;SDS011;7393;51.446;6.800;2024-01-07T08:59:14;14.53;;;9.60;;
14613;SDS011;7393;51.446;6.800;2024-01-07T09:01:40;13.97;;;9.17;;
14613;SDS011;7393;51.446;6.800;2024-01-07T09:04:07;12.80;;;8.77;;
14613;SDS011;7393;51.446;6.800;2024-01-07T09:06:34;14.93;;;9.53;;
14613;SDS011;7393;51.446;6.800;2024-01-07T09:09:01;12.53;;;9.13;;
14613;SDS011;7393;51.446;6.800;2024-01-07T09:11:30;13.73;;;8.93;;
14613;SDS011;7393;51.446;6.800;2024-01-07T09:13:57;12.43;;;8.47;;
14613;SDS011;7393;51.446;6.800;2024-01-07T09:16:26;9.97;;;8.00;;
14613;SDS011;7393;51.446;6.800;2024-01-07T09:18:53;11.27;;;7.90;;
14613;SDS011;7393;51.446;6.800;2024-01-07T09:21:19;12.97;;;8.60;;
14613;SDS011;7393;51.446;6.800;2024-01-07T09:23:48;10.80;;;7.87;;
14613;SDS011;7393;51.446;6.800;2024-01-07T09:26:14;11.90;;;8.20;;
14613;SDS011;7393;51.446;6.800;2024-01-07T09:28:41;11.97;;;8.40;;
14613;SDS011;7393;51.446;6.800;2024-01-07T09:31:08;10.97;;;8.23;;
14613;SDS011;7393;51.446;6.800;2024-01-07T09:33:37;10.97;;;7.97;;
14613;SDS011;7393;51.446;6.800;2024-01-07T09:36:04;10.27;;;8.33;;
14613;SDS011;7393;51.446;6.800;2024-01-07T09:38:32;11.13;;;7.50;;
14613;SDS011;7393;51.446;6.800;2024-01-07T09:40:59;12.07;;;7.93;;
14613;SDS011;7393;51.446;6.800;2024-01-07T09:43:26;12.87;;;8.20;;
14613;SDS011;7393;51.446;6.800;2024-01-07T09:45:53;9.33;;;7.23;;
14613;SDS011;7393;51.446;6.800;2024-01-07T09:48:22;8.83;;;7.20;;
14613;SDS011;7393;51.446;6.800;2024-01-07T09:50:51;11.27;;;7.87;;
14613;SDS011;7393;51.446;6.800;2024-01-07T09:53:19;9.70;;;7.43;;
14613;SDS011;7393;51.446;6.800;2024-01-07T09:55:49;9.97;;;7.63;;
14613;SDS011;7393;51.446;6.800;2024-01-07T09:58:23;9.53;;;7.30;;
14613;SDS011;7393;51.446;6.800;2024-01-07T10:00:51;10.80;;;7.37;;
14613;SDS011;7393;51.446;6.800;2024-01-07T10:03:18;10.30;;;7.80;;
14613;SDS011;7393;51.446;6.800;2024-01-07T10:05:45;10.97;;;7.70;;
14613;SDS011;7393;51.446;6.800;2024-01-07T10:08:13;9.43;;;7.33;;
14613;SDS011;7393;51.446;6.800;2024-01-07T10:10:40;11.03;;;7.77;;
14613;SDS011;7393;51.446;6.800;2024-01-07T10:13:07;10.30;;;7.57;;
14613;SDS011;7393;51.446;6.800;2024-01-07T10:15:34;10.57;;;7.30;;
14613;SDS011;7393;51.446;6.800;2024-01-07T10:18:05;8.77;;;6.90;;
14613;SDS011;7393;51.446;6.800;2024-01-07T10:20:33;8.77;;;7.40;;
14613;SDS011;7393;51.446;6.800;2024-01-07T10:23:00;9.93;;;7.97;;
14613;SDS011;7393;51.446;6.800;2024-01-07T10:25:29;7.50;;;5.87;;
14613;SDS011;7393;51.446;6.800;2024-01-07T10:27:58;8.90;;;6.57;;
14613;SDS011;7393;51.446;6.800;2024-01-07T10:30:26;9.10;;;6.60;;
14613;SDS011;7393;51.446;6.800;2024-01-07T10:32:55;9.10;;;6.77;;
14613;SDS011;7393;51.446;6.800;2024-01-07T10:35:24;9.93;;;6.53;;
14613;SDS011;7393;51.446;6.800;2024-01-07T10:37:54;9.60;;;6.60;;
14613;SDS011;7393;51.446;6.800;2024-01-07T10:40:21;10.83;;;6.57;;
14613;SDS011;7393;51.446;6.800;2024-01-07T10:42:50;8.37;;;6.30;;
14613;SDS011;7393;51.446;6.800;2024-01-07T10:45:18;10.30;;;6.30;;
14613;SDS011;7393;51.446;6.800;2024-01-07T10:47:45;11.07;;;6.70;;
14613;SDS011;7393;51.446;6.800;2024-01-07T10:50:16;10.27;;;6.13;;
14613;SDS011;7393;51.446;6.800;2024-01-07T10:52:45;9.40;;;5.80;;
14613;SDS011;7393;51.446;6.800;2024-01-07T10:55:15;8.10;;;5.77;;
14613;SDS011;7393;51.446;6.800;2024-01-07T10:57:46;8.13;;;5.97;;
14613;SDS011;7393;51.446;6.800;2024-01-07T11:00:16;9.80;;;6.27;;
14613;SDS011;7393;51.446;6.800;2024-01-07T11:05:37;9.27;;;6.00;;
14613;SDS011;7393;51.446;6.800;2024-01-07T11:08:11;6.73;;;4.80;;
14613;SDS011;7393;51.446;6.800;2024-01-07T11:10:45;7.00;;;5.13;;
14613;SDS011;7393;51.446;6.800;2024-01-07T11:13:31;6.07;;;4.53;;
14613;SDS011;7393;51.446;6.800;2024-01-07T11:16:00;6.20;;;4.77;;
14613;SDS011;7393;51.446;6.800;2024-01-07T11:18:27;7.27;;;4.97;;
14613;SDS011;7393;51.446;6.800;2024-01-07T11:20:58;7.03;;;5.00;;
14613;SDS011;7393;51.446;6.800;2024-01-07T11:23:26;5.90;;;4.27;;
14613;SDS011;7393;51.446;6.800;2024-01-07T11:25:55;5.97;;;4.30;;
14613;SDS011;7393;51.446;6.800;2024-01-07T11:31:12;6.87;;;4.37;;
14613;SDS011;7393;51.446;6.800;2024-01-07T11:33:41;6.17;;;4.10;;
14613;SDS011;7393;51.446;6.800;2024-01-07T11:36:10;6.17;;;4.17;;
14613;SDS011;7393;51.446;6.800;2024-01-07T11:38:37;7.17;;;4.53;;
14613;SDS011;7393;51.446;6.800;2024-01-07T11:41:07;6.70;;;4.07;;
14613;SDS011;7393;51.446;6.800;2024-01-07T11:43:35;7.27;;;4.50;;
14613;SDS011;7393;51.446;6.800;2024-01-07T11:46:02;6.50;;;4.20;;
14613;SDS011;7393;51.446;6.800;2024-01-07T11:48:31;5.50;;;4.20;;
14613;SDS011;7393;51.446;6.800;2024-01-07T11:50:57;4.47;;;3.70;;
14613;SDS011;7393;51.446;6.800;2024-01-07T11:53:24;6.70;;;4.10;;
14613;SDS011;7393;51.446;6.800;2024-01-07T11:55:51;5.40;;;4.23;;
14613;SDS011;7393;51.446;6.800;2024-01-07T11:58:18;5.53;;;4.03;;
14613;SDS011;7393;51.446;6.800;2024-01-07T12:00:45;5.37;;;4.00;;
14613;SDS011;7393;51.446;6.800;2024-01-07T12:03:11;5.33;;;4.10;;
14613;SDS011;7393;51.446;6.800;2024-01-07T12:05:40;6.40;;;3.67;;
14613;SDS011;7393;51.446;6.800;2024-01-07T12:08:06;7.10;;;4.10;;
14613;SDS011;7393;51.446;6.800;2024-01-07T12:10:33;4.73;;;3.50;;
14613;SDS011;7393;51.446;6.800;2024-01-07T12:13:00;4.43;;;3.23;;
14613;SDS011;7393;51.446;6.800;2024-01-07T12:15:28;4.47;;;3.90;;
14613;SDS011;7393;51.446;6.800;2024-01-07T12:17:56;4.47;;;3.37;;
14613;SDS011;7393;51.446;6.800;2024-01-07T12:20:25;4.90;;;3.17;;
14613;SDS011;7393;51.446;6.800;2024-01-07T12:22:54;5.83;;;3.40;;
14613;SDS011;7393;51.446;6.800;2024-01-07T12:25:22;5.20;;;3.40;;
14613;SDS011;7393;51.446;6.800;2024-01-07T12:27:50;5.33;;;3.57;;
14613;SDS011;7393;51.446;6.800;2024-01-07T12:30:19;3.83;;;3.00;;
14613;SDS011;7393;51.446;6.800;2024-01-07T12:32:46;6.53;;;3.43;;
14613;SDS011;7393;51.446;6.800;2024-01-07T12:35:13;3.77;;;3.03;;
14613;SDS011;7393;51.446;6.800;2024-01-07T12:37:40;4.37;;;3.00;;
14613;SDS011;7393;51.446;6.800;2024-01-07T12:40:10;4.67;;;3.13;;
14613;SDS011;7393;51.446;6.800;2024-01-07T12:42:37;4.27;;;3.10;;
14613;SDS011;7393;51.446;6.800;2024-01-07T12:45:09;3.67;;;2.77;;
14613;SDS011;7393;51.446;6.800;2024-01-07T12:47:36;4.10;;;3.00;;
14613;SDS011;7393;51.446;6.800;2024-01-07T12:50:03;3.73;;;2.80;;
14613;SDS011;7393;51.446;6.800;2024-01-07T12:52:30;5.57;;;2.80;;
14613;SDS011;7393;51.446;6.800;2024-01-07T12:54:57;4.57;;;3.47;;
14613;SDS011;7393;51.446;6.800;2024-01-07T12:57:25;5.93;;;3.17;;
14613;SDS011;7393;51.446;6.800;2024-01-07T12:59:52;3.97;;;2.63;;
14613;SDS011;7393;51.446;6.800;2024-01-07T13:02:19;4.17;;;2.90;;
14613;SDS011;7393;51.446;6.800;2024-01-07T13:04:46;6.37;;;2.90;;
14613;SDS011;7393;51.446;6.800;2024-01-07T13:07:12;4.67;;;3.00;;
14613;SDS011;7393;51.446;6.800;2024-01-07T13:09:39;6.67;;;2.63;;
14613;SDS011;7393;51.446;6.800;2024-01-07T13:12:06;4.30;;;3.00;;
14613;SDS011;7393;51.446;6.800;2024-01-07T13:14:34;5.50;;;3.20;;
14613;SDS011;7393;51.446;6.800;2024-01-07T13:17:01;4.33;;;3.00;;
14613;SDS011;7393;51.446;6.800;2024-01-07T13:19:28;3.47;;;2.60;;
14613;SDS011;7393;51.446;6.800;2024-01-07T13:21:55;4.63;;;2.57;;
14613;SDS011;7393;51.446;6.800;2024-01-07T13:24:23;4.30;;;2.67;;
14613;SDS011;7393;51.446;6.800;2024-01-07T13:26:50;3.10;;;2.53;;
14613;SDS011;7393;51.446;6.800;2024-01-07T13:29:16;4.40;;;3.03;;
14613;SDS011;7393;51.446;6.800;2024-01-07T13:31:44;3.57;;;3.10;;
14613;SDS011;7393;51.446;6.800;2024-01-07T13:34:11;4.83;;;3.03;;
14613;SDS011;7393;51.446;6.800;2024-01-07T13:36:39;8.03;;;4.30;;
14613;SDS011;7393;51.446;6.800;2024-01-07T13:39:07;4.03;;;2.93;;
14613;SDS011;7393;51.446;6.800;2024-01-07T13:41:33;4.10;;;2.90;;
14613;SDS011;7393;51.446;6.800;2024-01-07T13:44:00;5.30;;;2.83;;
14613;SDS011;7393;51.446;6.800;2024-01-07T13:46:28;3.27;;;2.60;;
14613;SDS011;7393;51.446;6.800;2024-01-07T13:48:56;5.83;;;3.00;;
14613;SDS011;7393;51.446;6.800;2024-01-07T13:51:23;4.53;;;2.53;;
14613;SDS011;7393;51.446;6.800;2024-01-07T13:53:50;3.33;;;2.53;;
14613;SDS011;7393;51.446;6.800;2024-01-07T13:56:17;3.33;;;2.60;;
14613;SDS011;7393;51.446;6.800;2024-01-07T13:58:43;3.33;;;2.47;;
14613;SDS011;7393;51.446;6.800;2024-01-07T14:01:12;4.33;;;2.80;;
14613;SDS011;7393;51.446;6.800;2024-01-07T14:03:41;5.40;;;2.87;;
14613;SDS011;7393;51.446;6.800;2024-01-07T14:06:09;3.97;;;2.50;;
14613;SDS011;7393;51.446;6.800;2024-01-07T14:08:36;3.50;;;2.60;;
14613;SDS011;7393;51.446;6.800;2024-01-07T14:11:03;3.17;;;2.63;;
14613;SDS011;7393;51.446;6.800;2024-01-07T14:13:32;4.00;;;2.80;;
14613;SDS011;7393;51.446;6.800;2024-01-07T14:15:59;6.57;;;2.40;;
14613;SDS011;7393;51.446;6.800;2024-01-07T14:18:26;3.40;;;2.47;;
14613;SDS011;7393;51.446;6.800;2024-01-07T14:20:53;3.60;;;2.40;;
14613;SDS011;7393;51.446;6.800;2024-01-07T14:23:21;2.90;;;2.40;;
14613;SDS011;7393;51.446;6.800;2024-01-07T14:25:48;3.00;;;2.50;;
14613;SDS011;7393;51.446;6.800;2024-01-07T14:28:15;3.50;;;2.47;;
14613;SDS011;7393;51.446;6.800;2024-01-07T14:30:41;3.47;;;2.20;;
14613;SDS011;7393;51.446;6.800;2024-01-07T14:33:08;3.50;;;2.40;;
14613;SDS011;7393;51.446;6.800;2024-01-07T14:35:36;4.80;;;3.20;;
14613;SDS011;7393;51.446;6.800;2024-01-07T14:38:02;5.30;;;3.30;;
14613;SDS011;7393;51.446;6.800;2024-01-07T14:40:31;7.73;;;4.70;;
14613;SDS011;7393;51.446;6.800;2024-01-07T14:42:58;3.50;;;2.60;;
14613;SDS011;7393;51.446;6.800;2024-01-07T14:45:26;3.50;;;2.57;;
14613;SDS011;7393;51.446;6.800;2024-01-07T14:47:53;3.20;;;2.50;;
14613;SDS011;7393;51.446;6.800;2024-01-07T14:50:20;3.40;;;2.77;;
14613;SDS011;7393;51.446;6.800;2024-01-07T14:52:47;3.47;;;2.43;;